Terminal Aerodrome Forecast
Issued by NWS

Home | Current Version | Previous Version | Text Only | Print | Product List | Glossary On
Versions: 1 2 3 4 5 6 7 8 9 10 11 12 13
000
FTUS45 KSLC 281120
TAFPVU
TAF
KPVU 281120Z 2812/2912 13005KT P6SM VCSH FEW060 BKN100
     FM281700 29007KT P6SM SCT060 BKN120
     FM290200 VRB06KT P6SM SCT100
     FM290600 13006KT P6SM SCT080 BKN120
      AMD LTD TO CLD VIS AND WIND=

USA.gov is the U.S. government's official web portal to all federal, state and local government web resources and services.